createdAt,value
2022-07-27T00:01:58.719Z,76.57
2022-07-27T00:04:25.856Z,77.00
2022-07-27T00:06:53.148Z,77.75
2022-07-27T00:09:20.142Z,77.57
2022-07-27T00:11:48.229Z,77.52
2022-07-27T00:14:15.463Z,78.27
2022-07-27T00:16:42.924Z,77.83
2022-07-27T00:19:11.175Z,77.62
2022-07-27T00:21:44.438Z,78.14
2022-07-27T00:24:12.247Z,79.14
2022-07-27T00:26:39.265Z,78.97
2022-07-27T00:29:06.328Z,78.83
2022-07-27T00:31:33.460Z,78.61
2022-07-27T00:34:01.692Z,78.55
2022-07-27T00:36:28.757Z,78.36
2022-07-27T00:38:55.724Z,77.45
2022-07-27T00:41:22.741Z,77.79
2022-07-27T00:43:55.713Z,77.79
2022-07-27T00:46:24.569Z,77.80
2022-07-27T00:48:52.241Z,77.10
2022-07-27T00:51:21.670Z,76.32
2022-07-27T00:53:49.612Z,76.53
2022-07-27T00:56:16.741Z,76.28
2022-07-27T00:58:48.878Z,75.98
2022-07-27T01:01:19.005Z,76.20
2022-07-27T01:03:47.911Z,75.73
2022-07-27T01:06:16.281Z,75.56
2022-07-27T01:08:44.301Z,75.27
2022-07-27T01:11:12.147Z,74.75
2022-07-27T01:13:39.442Z,74.80
2022-07-27T01:16:07.546Z,74.73
2022-07-27T01:18:38.273Z,74.36
2022-07-27T01:21:08.941Z,74.38
2022-07-27T01:23:36.877Z,74.12
2022-07-27T01:26:05.888Z,73.86
2022-07-27T01:28:32.945Z,74.22
2022-07-27T01:31:01.224Z,74.47
2022-07-27T01:33:28.334Z,74.04
2022-07-27T01:35:58.573Z,74.32
2022-07-27T01:38:26.991Z,74.13
2022-07-27T01:40:56.182Z,73.79
2022-07-27T01:43:23.689Z,73.36
2022-07-27T01:45:50.873Z,73.47
2022-07-27T01:48:19.830Z,73.04
2022-07-27T01:50:47.969Z,73.47
2022-07-27T01:53:15.155Z,73.22
2022-07-27T01:55:43.551Z,73.46
2022-07-27T01:58:12.405Z,73.24
2022-07-27T02:00:40.689Z,73.83
2022-07-27T02:03:10.434Z,73.00
2022-07-27T02:05:39.177Z,73.59
2022-07-27T02:08:08.103Z,73.72
2022-07-27T02:10:36.815Z,74.03
2022-07-27T02:13:22.755Z,73.28
2022-07-27T02:15:54.916Z,72.99
2022-07-27T02:18:33.598Z,73.93
2022-07-27T02:21:06.722Z,73.48
2022-07-27T02:23:35.503Z,73.92
2022-07-27T02:26:04.202Z,73.84
2022-07-27T02:28:31.655Z,73.59
2022-07-27T02:30:58.750Z,73.66
2022-07-27T02:33:25.744Z,73.33
2022-07-27T02:35:53.707Z,73.20
2022-07-27T02:38:20.775Z,73.34
2022-07-27T02:40:47.927Z,72.94
2022-07-27T02:43:15.073Z,73.07
2022-07-27T02:45:42.073Z,73.28
2022-07-27T02:48:09.007Z,73.57
2022-07-27T02:50:38.103Z,73.12
2022-07-27T02:53:05.105Z,73.46
2022-07-27T02:55:32.131Z,73.19
2022-07-27T02:57:59.111Z,73.27
2022-07-27T03:00:26.435Z,73.23
2022-07-27T03:02:53.396Z,73.38
2022-07-27T03:05:20.483Z,73.50
2022-07-27T03:07:48.550Z,73.32
2022-07-27T03:10:15.554Z,73.70
2022-07-27T03:12:44.260Z,73.29
2022-07-27T03:15:11.633Z,73.43
2022-07-27T03:17:38.833Z,73.74
2022-07-27T03:20:08.772Z,73.70
2022-07-27T03:22:37.940Z,73.65
2022-07-27T03:25:05.895Z,74.71
2022-07-27T03:27:32.882Z,74.62
2022-07-27T03:29:59.911Z,74.25
2022-07-27T03:32:26.918Z,74.64
2022-07-27T03:34:53.965Z,75.01
2022-07-27T03:37:21.013Z,75.67
2022-07-27T03:39:48.091Z,75.63
2022-07-27T03:42:15.161Z,75.09
2022-07-27T03:44:42.206Z,76.46
2022-07-27T03:47:09.215Z,76.11
2022-07-27T03:49:36.324Z,76.22
2022-07-27T03:52:03.597Z,76.23
2022-07-27T03:54:30.811Z,76.93
2022-07-27T03:56:57.836Z,77.26
2022-07-27T03:59:27.166Z,77.47
2022-07-27T04:01:54.883Z,78.14
2022-07-27T04:04:21.941Z,78.27
2022-07-27T04:06:48.903Z,78.54
2022-07-27T04:09:17.212Z,79.67
2022-07-27T04:11:50.941Z,79.40
2022-07-27T04:14:18.952Z,80.00
2022-07-27T04:16:46.986Z,79.76
2022-07-27T04:19:14.491Z,80.24
2022-07-27T04:21:41.840Z,80.92
2022-07-27T04:24:09.307Z,80.53
2022-07-27T04:26:36.943Z,80.55
2022-07-27T04:29:04.335Z,80.68
2022-07-27T04:31:31.839Z,81.19
2022-07-27T04:33:58.838Z,81.60
2022-07-27T04:36:25.945Z,81.26
2022-07-27T04:38:52.880Z,81.38
2022-07-27T04:41:19.842Z,81.52
2022-07-27T04:43:47.040Z,82.29
2022-07-27T04:46:15.743Z,81.75
2022-07-27T04:48:49.444Z,81.24
2022-07-27T04:51:18.090Z,81.35
2022-07-27T04:53:54.006Z,81.68
2022-07-27T04:56:27.198Z,80.47
2022-07-27T04:58:55.609Z,80.71
2022-07-27T05:01:23.343Z,81.00
2022-07-27T05:03:50.558Z,81.28
2022-07-27T05:06:17.875Z,81.30
2022-07-27T05:08:44.990Z,80.81
2022-07-27T05:11:12.121Z,80.94
2022-07-27T05:13:42.237Z,81.17
2022-07-27T05:16:11.645Z,80.78
2022-07-27T05:18:39.728Z,81.34
2022-07-27T05:21:08.378Z,82.13
2022-07-27T05:23:36.428Z,81.21
2022-07-27T05:26:03.692Z,81.92
2022-07-27T05:28:30.701Z,81.66
2022-07-27T05:30:58.993Z,81.83
2022-07-27T05:33:26.104Z,81.86
2022-07-27T05:35:53.145Z,81.99
2022-07-27T05:38:20.076Z,82.13
2022-07-27T05:40:47.545Z,81.81
2022-07-27T05:43:14.625Z,82.48
2022-07-27T05:45:41.692Z,83.39
2022-07-27T05:48:08.812Z,83.43
2022-07-27T05:50:35.899Z,83.63
2022-07-27T05:53:03.680Z,83.85
2022-07-27T05:55:30.648Z,84.81
2022-07-27T05:57:57.797Z,84.41
2022-07-27T06:00:24.954Z,84.22
2022-07-27T06:02:51.934Z,82.76
2022-07-27T06:05:21.379Z,80.83
2022-07-27T06:08:00.918Z,80.09
2022-07-27T06:10:33.921Z,79.66
2022-07-27T06:13:03.977Z,79.51
2022-07-27T06:15:32.548Z,80.03
2022-07-27T06:17:59.599Z,79.62
2022-07-27T06:20:27.331Z,79.29
2022-07-27T06:23:00.355Z,78.28
2022-07-27T06:25:34.150Z,77.75
2022-07-27T06:28:04.434Z,78.23
2022-07-27T06:30:31.882Z,79.77
2022-07-27T06:32:59.200Z,79.45
2022-07-27T06:35:27.103Z,79.68
2022-07-27T06:37:54.187Z,80.52
2022-07-27T06:40:21.657Z,79.29
2022-07-27T06:42:48.691Z,78.67
2022-07-27T06:45:16.507Z,79.74
2022-07-27T06:47:49.739Z,79.78
2022-07-27T06:50:23.524Z,78.60
2022-07-27T06:52:50.719Z,79.52
2022-07-27T06:55:17.904Z,78.47
2022-07-27T06:57:46.520Z,78.59
2022-07-27T07:00:15.215Z,77.92
2022-07-27T07:03:03.078Z,78.32
2022-07-27T07:05:32.195Z,77.99
2022-07-27T07:07:59.261Z,78.07
2022-07-27T07:10:27.699Z,77.83
2022-07-27T07:12:58.242Z,78.05
2022-07-27T07:15:26.514Z,78.71
2022-07-27T07:17:54.778Z,77.76
2022-07-27T07:20:22.219Z,77.93
2022-07-27T07:22:50.600Z,77.85
2022-07-27T07:25:18.050Z,76.97
2022-07-27T07:27:45.090Z,76.12
2022-07-27T07:30:13.006Z,77.61
2022-07-27T07:32:40.177Z,77.82
2022-07-27T07:35:08.204Z,77.19
2022-07-27T07:37:35.170Z,77.76
2022-07-27T07:40:32.155Z,77.04
2022-07-27T07:42:56.491Z,77.05
2022-07-27T07:45:25.030Z,77.79
2022-07-27T07:47:55.140Z,76.53
2022-07-27T07:50:23.301Z,76.91
2022-07-27T07:52:52.950Z,74.77
2022-07-27T07:55:22.808Z,75.31
2022-07-27T07:57:50.744Z,74.15
2022-07-27T08:00:19.353Z,74.79
2022-07-27T08:02:48.809Z,74.04
2022-07-27T08:05:16.588Z,73.00
2022-07-27T08:07:45.040Z,73.82
2022-07-27T08:10:14.935Z,74.15
2022-07-27T08:12:45.587Z,74.55
2022-07-27T08:15:14.837Z,74.08
2022-07-27T08:17:45.625Z,74.21
2022-07-27T08:20:14.580Z,74.27
2022-07-27T08:22:42.276Z,73.29
2022-07-27T08:25:12.844Z,75.19
2022-07-27T08:27:40.952Z,73.88
2022-07-27T08:30:10.557Z,73.97
2022-07-27T08:32:59.863Z,72.69
2022-07-27T08:35:28.742Z,70.94
2022-07-27T08:37:56.255Z,72.97
2022-07-27T08:43:13.265Z,72.13
2022-07-27T08:45:41.823Z,71.91
2022-07-27T08:48:14.303Z,71.80
2022-07-27T08:50:42.747Z,72.11
2022-07-27T08:53:13.059Z,69.58
2022-07-27T08:55:43.917Z,68.69
2022-07-27T08:58:13.906Z,69.60
2022-07-27T09:00:48.283Z,68.38
2022-07-27T09:03:20.040Z,68.66
2022-07-27T09:05:56.287Z,68.48
2022-07-27T09:08:30.905Z,69.12
2022-07-27T09:11:00.270Z,69.00
2022-07-27T09:13:34.243Z,68.52
2022-07-27T09:16:18.171Z,67.09
2022-07-27T09:18:46.335Z,66.97
2022-07-27T09:21:22.971Z,65.39
2022-07-27T09:24:17.986Z,65.03
2022-07-27T09:27:03.781Z,64.67
2022-07-27T09:29:36.329Z,66.47
2022-07-27T09:32:15.747Z,66.00
2022-07-27T09:34:44.056Z,66.33
2022-07-27T09:37:12.326Z,67.55
2022-07-27T09:39:39.487Z,65.31
2022-07-27T09:42:08.183Z,65.64
2022-07-27T09:44:42.465Z,65.86
2022-07-27T09:47:29.689Z,64.23
2022-07-27T09:50:17.249Z,66.97
2022-07-27T09:52:45.378Z,65.10
2022-07-27T09:55:12.752Z,65.78
2022-07-27T09:57:58.108Z,66.32
2022-07-27T10:00:27.053Z,67.06
2022-07-27T10:02:55.532Z,66.82
2022-07-27T10:05:23.756Z,66.42
2022-07-27T10:07:53.597Z,65.14
2022-07-27T10:10:22.839Z,66.12
2022-07-27T10:12:54.703Z,66.03
2022-07-27T10:15:23.165Z,65.58
2022-07-27T10:17:57.888Z,65.25
2022-07-27T10:20:25.537Z,62.26
2022-07-27T10:23:01.135Z,62.79
2022-07-27T10:25:37.284Z,63.86
2022-07-27T10:28:17.479Z,63.65
2022-07-27T10:30:49.417Z,64.10
2022-07-27T10:33:42.901Z,64.78
2022-07-27T10:36:38.892Z,63.61
2022-07-27T10:39:07.701Z,65.58
2022-07-27T10:41:40.226Z,63.37
2022-07-27T10:44:18.833Z,65.56
2022-07-27T10:46:52.333Z,63.42
2022-07-27T10:49:24.741Z,63.62
2022-07-27T10:51:55.892Z,63.71
2022-07-27T10:54:36.649Z,62.50
2022-07-27T10:57:06.921Z,62.97
2022-07-27T11:02:42.730Z,60.23
2022-07-27T11:05:53.844Z,61.11
2022-07-27T11:10:48.788Z,61.18
2022-07-27T11:13:19.494Z,60.19
2022-07-27T11:16:15.764Z,61.29
2022-07-27T11:19:04.835Z,60.25
2022-07-27T11:21:38.109Z,60.26
2022-07-27T11:24:15.250Z,60.46
2022-07-27T11:26:49.517Z,59.25
2022-07-27T11:29:19.504Z,59.55
2022-07-27T11:31:55.906Z,61.60
2022-07-27T11:34:33.740Z,60.27
2022-07-27T11:37:03.576Z,58.86
2022-07-27T11:42:23.433Z,59.63
2022-07-27T11:44:52.952Z,59.57
2022-07-27T11:47:24.416Z,57.94
2022-07-27T11:49:52.133Z,57.33
2022-07-27T11:52:19.400Z,57.63
2022-07-27T11:54:52.790Z,58.73
2022-07-27T11:57:20.806Z,58.65
2022-07-27T11:59:48.668Z,58.62
2022-07-27T12:02:19.914Z,57.03
2022-07-27T12:04:50.360Z,57.46
2022-07-27T12:07:29.550Z,57.41
2022-07-27T12:10:02.045Z,57.09
2022-07-27T12:12:31.897Z,56.97
2022-07-27T12:15:16.303Z,57.10
2022-07-27T12:17:57.013Z,56.30
2022-07-27T12:20:34.210Z,55.62
2022-07-27T12:23:06.801Z,56.02
2022-07-27T12:25:35.107Z,54.89
2022-07-27T12:28:13.432Z,54.25
2022-07-27T12:30:51.932Z,56.33
2022-07-27T12:33:37.317Z,56.08
2022-07-27T12:36:07.172Z,54.74
2022-07-27T12:38:51.182Z,54.16
2022-07-27T12:41:30.874Z,55.20
2022-07-27T12:44:12.852Z,54.18
2022-07-27T12:47:16.862Z,55.07
2022-07-27T12:49:46.541Z,54.58
2022-07-27T12:52:13.674Z,54.58
2022-07-27T12:54:40.690Z,54.80
2022-07-27T12:57:07.599Z,53.63
2022-07-27T12:59:34.536Z,51.98
2022-07-27T13:02:01.673Z,53.81
2022-07-27T13:04:28.698Z,53.78
2022-07-27T13:06:55.685Z,53.08
2022-07-27T13:09:22.648Z,52.31
2022-07-27T13:11:49.620Z,54.67
2022-07-27T13:14:16.583Z,54.96
2022-07-27T13:16:43.594Z,53.20
2022-07-27T13:19:11.501Z,52.01
2022-07-27T13:21:38.755Z,51.60
2022-07-27T13:24:09.987Z,53.07
2022-07-27T13:26:37.847Z,51.74
2022-07-27T13:29:05.101Z,53.45
2022-07-27T13:31:32.462Z,51.69
2022-07-27T13:34:00.233Z,51.64
2022-07-27T13:36:27.416Z,51.54
2022-07-27T13:38:54.479Z,51.25
2022-07-27T13:41:22.236Z,52.17
2022-07-27T13:43:49.192Z,50.94
2022-07-27T13:46:16.501Z,51.64
2022-07-27T13:48:43.643Z,51.16
2022-07-27T13:51:10.668Z,50.81
2022-07-27T13:53:37.585Z,50.00
2022-07-27T13:56:07.305Z,50.70
2022-07-27T13:58:35.178Z,51.39
2022-07-27T14:01:07.100Z,50.52
2022-07-27T14:03:34.694Z,50.41
2022-07-27T14:06:01.651Z,50.21
2022-07-27T14:08:28.851Z,50.15
2022-07-27T14:10:55.833Z,49.87
2022-07-27T14:13:24.807Z,51.46
2022-07-27T14:15:54.073Z,52.49
2022-07-27T14:18:32.423Z,51.95
2022-07-27T14:21:02.404Z,50.16
2022-07-27T14:23:30.216Z,49.89
2022-07-27T14:25:59.148Z,49.06
2022-07-27T14:28:28.287Z,49.86
2022-07-27T14:30:57.098Z,49.69
2022-07-27T14:33:25.864Z,49.58
2022-07-27T14:36:00.165Z,49.69
2022-07-27T14:38:30.728Z,50.09
2022-07-27T14:41:03.423Z,50.51
2022-07-27T14:43:31.034Z,49.96
2022-07-27T14:45:58.490Z,49.86
2022-07-27T14:48:42.662Z,49.47
2022-07-27T14:51:12.434Z,49.53
2022-07-27T14:53:39.584Z,50.98
2022-07-27T14:56:06.552Z,50.44
2022-07-27T14:58:33.846Z,50.85
2022-07-27T15:01:01.013Z,52.14
2022-07-27T15:03:28.131Z,50.58
2022-07-27T15:05:55.083Z,50.71
2022-07-27T15:08:22.592Z,51.43
2022-07-27T15:10:49.630Z,52.25
2022-07-27T15:13:17.889Z,50.67
2022-07-27T15:15:48.302Z,50.18
2022-07-27T15:18:16.162Z,50.93
2022-07-27T15:20:43.167Z,50.03
2022-07-27T15:23:10.094Z,49.89
2022-07-27T15:25:37.348Z,49.87
2022-07-27T15:28:04.660Z,50.58
2022-07-27T15:30:37.902Z,49.95
2022-07-27T15:33:06.102Z,50.01
2022-07-27T15:35:33.147Z,48.95
2022-07-27T15:38:00.136Z,48.84
2022-07-27T15:40:39.210Z,48.83
2022-07-27T15:43:15.305Z,50.00
2022-07-27T15:45:45.711Z,49.32
2022-07-27T15:48:13.622Z,48.52
2022-07-27T15:50:44.617Z,47.81
2022-07-27T15:53:12.155Z,47.76
2022-07-27T15:55:39.259Z,49.41
2022-07-27T15:58:06.937Z,48.06
2022-07-27T16:00:40.679Z,48.59
2022-07-27T16:03:13.017Z,49.33
2022-07-27T16:05:44.445Z,49.30
2022-07-27T16:08:11.759Z,49.49
2022-07-27T16:10:40.952Z,48.63
2022-07-27T16:13:10.345Z,49.06
2022-07-27T16:15:58.266Z,48.46
2022-07-27T16:18:26.378Z,49.28
2022-07-27T16:20:53.826Z,49.44
2022-07-27T16:23:28.331Z,48.55
2022-07-27T16:26:06.771Z,48.99
2022-07-27T16:28:40.802Z,49.50
2022-07-27T16:31:11.303Z,47.96
2022-07-27T16:33:38.702Z,50.19
2022-07-27T16:36:09.482Z,49.26
2022-07-27T16:38:40.344Z,49.48
2022-07-27T16:41:21.261Z,48.32
2022-07-27T16:43:49.758Z,48.40
2022-07-27T16:46:17.718Z,49.02
2022-07-27T16:48:45.312Z,48.20
2022-07-27T16:51:16.178Z,48.97
2022-07-27T16:53:46.152Z,49.07
2022-07-27T16:56:13.680Z,49.78
2022-07-27T16:58:41.569Z,48.23
2022-07-27T17:01:09.495Z,48.38
2022-07-27T17:03:37.816Z,47.98
2022-07-27T17:06:07.159Z,49.04
2022-07-27T17:08:36.215Z,48.72
2022-07-27T17:11:05.366Z,47.23
2022-07-27T17:13:37.060Z,48.05
2022-07-27T17:16:09.363Z,48.04
2022-07-27T17:18:40.298Z,47.10
2022-07-27T17:21:12.501Z,47.17
2022-07-27T17:23:41.901Z,47.63
2022-07-27T17:26:10.199Z,47.05
2022-07-27T17:28:39.630Z,47.60
2022-07-27T17:31:12.621Z,47.06
2022-07-27T17:33:40.877Z,47.16
2022-07-27T17:36:14.721Z,46.97
2022-07-27T17:38:47.264Z,47.23
2022-07-27T17:41:21.912Z,46.63
2022-07-27T17:43:52.031Z,46.68
2022-07-27T17:46:19.050Z,46.82
2022-07-27T17:48:46.105Z,46.62
2022-07-27T17:51:13.153Z,46.56
2022-07-27T17:53:40.092Z,46.20
2022-07-27T17:56:08.432Z,47.32
2022-07-27T17:58:35.655Z,46.39
2022-07-27T18:01:02.803Z,45.89
2022-07-27T18:03:29.825Z,48.17
2022-07-27T18:05:56.987Z,47.38
2022-07-27T18:08:24.583Z,48.28
2022-07-27T18:10:51.998Z,47.73
2022-07-27T18:13:19.703Z,48.55
2022-07-27T18:15:54.155Z,49.42
2022-07-27T18:18:27.209Z,50.89
2022-07-27T18:20:56.442Z,51.02
2022-07-27T18:23:27.935Z,51.97
2022-07-27T18:25:55.563Z,52.13
2022-07-27T18:28:23.450Z,53.25
2022-07-27T18:30:52.835Z,53.11
2022-07-27T18:33:21.027Z,53.67
2022-07-27T18:35:48.749Z,53.54
2022-07-27T18:38:16.765Z,53.66
2022-07-27T18:40:46.732Z,54.30
2022-07-27T18:43:16.577Z,55.25
2022-07-27T18:45:44.107Z,55.61
2022-07-27T18:48:11.186Z,56.77
2022-07-27T18:50:41.694Z,56.92
2022-07-27T18:53:09.427Z,56.96
2022-07-27T18:55:37.140Z,57.48
2022-07-27T18:58:04.565Z,57.29
2022-07-27T19:00:32.090Z,57.53
2022-07-27T19:02:59.671Z,57.82
2022-07-27T19:05:32.341Z,57.60
2022-07-27T19:08:13.522Z,57.58
2022-07-27T19:10:44.763Z,58.38
2022-07-27T19:13:12.860Z,58.34
2022-07-27T19:15:40.278Z,58.25
2022-07-27T19:18:07.629Z,59.32
2022-07-27T19:20:36.406Z,59.39
2022-07-27T19:23:07.414Z,58.56
2022-07-27T19:25:34.731Z,59.32
2022-07-27T19:28:03.720Z,59.02
2022-07-27T19:30:31.259Z,58.01
2022-07-27T19:32:58.537Z,58.60
2022-07-27T19:35:25.624Z,57.84
2022-07-27T19:37:52.651Z,58.12
2022-07-27T19:40:43.308Z,58.50
2022-07-27T19:43:07.444Z,59.25
2022-07-27T19:45:36.359Z,59.03
2022-07-27T19:48:05.512Z,58.84
2022-07-27T19:50:32.961Z,59.74
2022-07-27T19:53:00.986Z,60.03
2022-07-27T19:55:28.044Z,59.17
2022-07-27T19:57:55.034Z,58.99
2022-07-27T20:00:22.384Z,60.17
2022-07-27T20:02:49.472Z,60.01
2022-07-27T20:05:16.581Z,59.92
2022-07-27T20:07:43.587Z,60.55
2022-07-27T20:10:11.123Z,59.01
2022-07-27T20:12:38.480Z,59.65
2022-07-27T20:15:06.686Z,59.54
2022-07-27T20:17:37.001Z,60.57
2022-07-27T20:20:08.593Z,60.30
2022-07-27T20:22:35.551Z,61.58
2022-07-27T20:25:03.085Z,61.40
2022-07-27T20:27:30.127Z,60.99
2022-07-27T20:29:57.128Z,60.90
2022-07-27T20:32:24.239Z,61.27
2022-07-27T20:34:51.352Z,61.08
2022-07-27T20:37:18.343Z,61.23
2022-07-27T20:39:45.360Z,61.21
2022-07-27T20:42:12.276Z,60.49
2022-07-27T20:44:39.391Z,61.37
2022-07-27T20:47:08.038Z,61.60
2022-07-27T20:49:35.487Z,62.62
2022-07-27T20:52:02.869Z,62.17
2022-07-27T20:54:30.449Z,61.94
2022-07-27T20:56:57.589Z,61.75
2022-07-27T20:59:24.803Z,61.90
2022-07-27T21:01:52.570Z,62.34
2022-07-27T21:04:20.391Z,62.75
2022-07-27T21:06:50.756Z,62.44
2022-07-27T21:09:18.764Z,62.09
2022-07-27T21:11:46.056Z,62.41
2022-07-27T21:14:13.079Z,61.63
2022-07-27T21:16:40.289Z,62.41
2022-07-27T21:19:07.653Z,63.02
2022-07-27T21:21:34.661Z,63.78
2022-07-27T21:24:18.382Z,63.77
2022-07-27T21:26:51.905Z,63.59
2022-07-27T21:29:20.567Z,64.50
2022-07-27T21:31:50.162Z,64.52
2022-07-27T21:34:19.979Z,63.95
2022-07-27T21:36:48.546Z,64.25
2022-07-27T21:39:18.131Z,63.83
2022-07-27T21:41:45.850Z,63.46
2022-07-27T21:44:13.350Z,64.08
2022-07-27T21:46:40.657Z,63.72
2022-07-27T21:49:08.215Z,64.45
2022-07-27T21:51:35.920Z,65.38
2022-07-27T21:54:02.978Z,66.76
2022-07-27T21:56:30.085Z,66.91
2022-07-27T21:58:57.468Z,67.02
2022-07-27T22:01:24.522Z,66.82
2022-07-27T22:03:51.622Z,67.90
2022-07-27T22:06:18.956Z,67.13
2022-07-27T22:08:48.823Z,67.49
2022-07-27T22:11:15.776Z,68.12
2022-07-27T22:13:42.743Z,68.24
2022-07-27T22:16:12.497Z,69.13
2022-07-27T22:18:39.785Z,69.51
2022-07-27T22:21:06.879Z,70.09
2022-07-27T22:23:33.861Z,70.41
2022-07-27T22:26:01.017Z,71.41
2022-07-27T22:28:27.989Z,70.75
2022-07-27T22:31:15.569Z,69.97
2022-07-27T22:33:44.314Z,69.22
2022-07-27T22:36:12.209Z,69.59
2022-07-27T22:38:39.571Z,69.10
2022-07-27T22:41:06.773Z,69.32
2022-07-27T22:43:33.956Z,69.19
2022-07-27T22:46:03.819Z,69.07
2022-07-27T22:48:31.019Z,69.25
2022-07-27T22:50:57.962Z,68.91
2022-07-27T22:53:24.960Z,68.70
2022-07-27T22:55:51.980Z,68.84
2022-07-27T22:58:18.893Z,69.00
2022-07-27T23:00:45.868Z,68.76
2022-07-27T23:03:12.849Z,67.94
2022-07-27T23:05:39.911Z,68.34
2022-07-27T23:08:06.887Z,67.79
2022-07-27T23:10:46.291Z,68.27
2022-07-27T23:13:18.803Z,67.94
2022-07-27T23:15:46.779Z,67.43
2022-07-27T23:18:14.234Z,67.01
2022-07-27T23:20:41.507Z,67.34
2022-07-27T23:23:12.403Z,67.44
2022-07-27T23:25:48.313Z,66.91
2022-07-27T23:28:16.797Z,67.05
2022-07-27T23:30:44.266Z,67.07
2022-07-27T23:33:11.463Z,67.24
2022-07-27T23:35:38.431Z,67.12
2022-07-27T23:38:05.433Z,67.77
2022-07-27T23:40:32.429Z,67.84
2022-07-27T23:42:59.505Z,68.18
2022-07-27T23:45:28.171Z,67.47
2022-07-27T23:47:55.320Z,67.45
2022-07-27T23:50:22.582Z,67.33
2022-07-27T23:52:49.559Z,68.02
2022-07-27T23:55:16.723Z,68.58
2022-07-27T23:57:45.479Z,68.01
